Terminal Aerodrome Forecast
Issued by NWS

Home | Current Version | Previous Version | Text Only | Print | Product List | Glossary On
Versions: 1 2 3 4 5 6 7 8 9 10 11 12 13 14 15 16 17 18 19
000
FTUS42 KMLB 010543
TAFFPR
TAF
KFPR 010543Z 0106/0206 00000KT P6SM BKN250
     FM011300 20005KT P6SM FEW015 SCT150 BKN250
     FM011700 12010KT P6SM SCT025 SCT050
     FM020000 15006KT P6SM FEW030 SCT250=

USA.gov is the U.S. government's official web portal to all federal, state and local government web resources and services.